Wainwright, Canada
Current Conditions -  °F | °C
As of 1:32 AM on Monday 22 Dec 2014 (Local Time) from CYLL Reporting Station
Light Snow Light Snow  
Wind Chill:   Ceiling: 2600
Heat Index: 19°   Visibility: 8mi
Dew Point: 18°   Wind: 8mph
Humidity: 93%   Direction: 310°NW
Pressure: 29.59"   Gusts: NA
Location:  52.83°N, 110.87°W
Report Text: CYLL 220832Z AUTO 31007KT 8SM -SN BKN026 OVC032 M07/M08 A2959 RMK SLP062
Loading
Personal Weather Stations






























Interactive Weather Map New forecast layout! Learn more

10-Day Weather Forecast

Advertisements
Track Severe Weather on mobile